sensor_id;sensor_type;location;lat;lon;timestamp;P1;durP1;ratioP1;P2;durP2;ratioP2
3841;SDS011;1936;47.074;15.336;2023-07-29T00:01:02;4.30;;;3.63;;
3841;SDS011;1936;47.074;15.336;2023-07-29T00:03:06;10.47;;;3.47;;
3841;SDS011;1936;47.074;15.336;2023-07-29T00:05:11;8.33;;;3.60;;
3841;SDS011;1936;47.074;15.336;2023-07-29T00:07:15;6.23;;;3.63;;
3841;SDS011;1936;47.074;15.336;2023-07-29T00:09:18;10.10;;;3.10;;
3841;SDS011;1936;47.074;15.336;2023-07-29T00:11:22;5.37;;;4.87;;
3841;SDS011;1936;47.074;15.336;2023-07-29T00:13:25;13.47;;;3.37;;
3841;SDS011;1936;47.074;15.336;2023-07-29T00:15:29;10.67;;;4.33;;
3841;SDS011;1936;47.074;15.336;2023-07-29T00:17:32;6.40;;;3.20;;
3841;SDS011;1936;47.074;15.336;2023-07-29T00:19:36;5.80;;;4.27;;
3841;SDS011;1936;47.074;15.336;2023-07-29T00:21:40;8.37;;;4.40;;
3841;SDS011;1936;47.074;15.336;2023-07-29T00:23:44;10.13;;;3.73;;
3841;SDS011;1936;47.074;15.336;2023-07-29T00:25:48;3.60;;;3.30;;
3841;SDS011;1936;47.074;15.336;2023-07-29T00:27:54;3.50;;;3.20;;
3841;SDS011;1936;47.074;15.336;2023-07-29T00:29:59;6.73;;;3.70;;
3841;SDS011;1936;47.074;15.336;2023-07-29T00:32:03;3.93;;;3.63;;
3841;SDS011;1936;47.074;15.336;2023-07-29T00:34:07;5.27;;;3.90;;
3841;SDS011;1936;47.074;15.336;2023-07-29T00:36:11;5.37;;;3.60;;
3841;SDS011;1936;47.074;15.336;2023-07-29T00:38:16;4.70;;;3.63;;
3841;SDS011;1936;47.074;15.336;2023-07-29T00:40:20;9.70;;;5.23;;
3841;SDS011;1936;47.074;15.336;2023-07-29T00:42:24;8.17;;;4.57;;
3841;SDS011;1936;47.074;15.336;2023-07-29T00:44:28;11.70;;;3.47;;
3841;SDS011;1936;47.074;15.336;2023-07-29T00:46:33;6.30;;;3.90;;
3841;SDS011;1936;47.074;15.336;2023-07-29T00:48:39;3.60;;;3.30;;
3841;SDS011;1936;47.074;15.336;2023-07-29T00:50:42;4.73;;;3.80;;
3841;SDS011;1936;47.074;15.336;2023-07-29T00:52:46;4.60;;;3.40;;
3841;SDS011;1936;47.074;15.336;2023-07-29T00:54:52;5.33;;;3.60;;
3841;SDS011;1936;47.074;15.336;2023-07-29T00:56:55;7.87;;;4.30;;
3841;SDS011;1936;47.074;15.336;2023-07-29T00:58:59;5.40;;;3.90;;
3841;SDS011;1936;47.074;15.336;2023-07-29T01:01:03;5.53;;;3.77;;
3841;SDS011;1936;47.074;15.336;2023-07-29T01:03:07;4.67;;;3.63;;
3841;SDS011;1936;47.074;15.336;2023-07-29T01:05:12;5.13;;;3.37;;
3841;SDS011;1936;47.074;15.336;2023-07-29T01:07:19;5.13;;;4.13;;
3841;SDS011;1936;47.074;15.336;2023-07-29T01:09:30;4.80;;;3.70;;
3841;SDS011;1936;47.074;15.336;2023-07-29T01:11:41;3.80;;;3.30;;
3841;SDS011;1936;47.074;15.336;2023-07-29T01:13:58;6.83;;;3.97;;
3841;SDS011;1936;47.074;15.336;2023-07-29T01:16:09;4.80;;;3.63;;
3841;SDS011;1936;47.074;15.336;2023-07-29T01:18:18;4.50;;;4.10;;
3841;SDS011;1936;47.074;15.336;2023-07-29T01:20:25;4.60;;;3.40;;
3841;SDS011;1936;47.074;15.336;2023-07-29T01:22:29;3.53;;;3.00;;
3841;SDS011;1936;47.074;15.336;2023-07-29T01:24:34;5.53;;;3.50;;
3841;SDS011;1936;47.074;15.336;2023-07-29T01:26:37;4.83;;;3.00;;
3841;SDS011;1936;47.074;15.336;2023-07-29T01:28:41;4.50;;;4.10;;
3841;SDS011;1936;47.074;15.336;2023-07-29T01:30:44;6.33;;;3.90;;
3841;SDS011;1936;47.074;15.336;2023-07-29T01:32:53;4.33;;;3.93;;
3841;SDS011;1936;47.074;15.336;2023-07-29T01:35:03;4.03;;;3.63;;
3841;SDS011;1936;47.074;15.336;2023-07-29T01:37:15;5.80;;;3.50;;
3841;SDS011;1936;47.074;15.336;2023-07-29T01:39:25;5.23;;;3.73;;
3841;SDS011;1936;47.074;15.336;2023-07-29T01:41:33;5.23;;;3.57;;
3841;SDS011;1936;47.074;15.336;2023-07-29T01:43:37;6.43;;;4.23;;
3841;SDS011;1936;47.074;15.336;2023-07-29T01:45:45;4.10;;;3.70;;
3841;SDS011;1936;47.074;15.336;2023-07-29T01:47:49;5.27;;;3.57;;
3841;SDS011;1936;47.074;15.336;2023-07-29T01:49:52;4.40;;;4.00;;
3841;SDS011;1936;47.074;15.336;2023-07-29T01:51:56;4.37;;;3.93;;
3841;SDS011;1936;47.074;15.336;2023-07-29T01:53:59;7.97;;;3.70;;
3841;SDS011;1936;47.074;15.336;2023-07-29T01:56:03;5.77;;;3.90;;
3841;SDS011;1936;47.074;15.336;2023-07-29T01:58:08;10.20;;;3.90;;
3841;SDS011;1936;47.074;15.336;2023-07-29T02:00:12;5.43;;;3.37;;
3841;SDS011;1936;47.074;15.336;2023-07-29T02:02:15;4.47;;;3.47;;
3841;SDS011;1936;47.074;15.336;2023-07-29T02:04:19;9.33;;;3.70;;
3841;SDS011;1936;47.074;15.336;2023-07-29T02:06:23;3.90;;;3.60;;
3841;SDS011;1936;47.074;15.336;2023-07-29T02:08:26;7.50;;;3.87;;
3841;SDS011;1936;47.074;15.336;2023-07-29T02:10:30;8.93;;;4.40;;
3841;SDS011;1936;47.074;15.336;2023-07-29T02:12:33;7.77;;;4.80;;
3841;SDS011;1936;47.074;15.336;2023-07-29T02:14:37;5.33;;;3.47;;
3841;SDS011;1936;47.074;15.336;2023-07-29T02:16:40;5.20;;;4.53;;
3841;SDS011;1936;47.074;15.336;2023-07-29T02:18:44;5.37;;;3.63;;
3841;SDS011;1936;47.074;15.336;2023-07-29T02:20:47;4.20;;;3.70;;
3841;SDS011;1936;47.074;15.336;2023-07-29T02:22:51;6.83;;;3.77;;
3841;SDS011;1936;47.074;15.336;2023-07-29T02:24:55;4.27;;;3.87;;
3841;SDS011;1936;47.074;15.336;2023-07-29T02:26:59;5.20;;;4.10;;
3841;SDS011;1936;47.074;15.336;2023-07-29T02:29:02;8.33;;;3.77;;
3841;SDS011;1936;47.074;15.336;2023-07-29T02:31:13;4.33;;;3.93;;
3841;SDS011;1936;47.074;15.336;2023-07-29T02:33:18;4.33;;;3.60;;
3841;SDS011;1936;47.074;15.336;2023-07-29T02:35:22;5.07;;;3.67;;
3841;SDS011;1936;47.074;15.336;2023-07-29T02:37:25;4.93;;;4.13;;
3841;SDS011;1936;47.074;15.336;2023-07-29T02:39:29;4.03;;;3.50;;
3841;SDS011;1936;47.074;15.336;2023-07-29T02:41:32;4.67;;;3.90;;
3841;SDS011;1936;47.074;15.336;2023-07-29T02:43:35;5.37;;;3.97;;
3841;SDS011;1936;47.074;15.336;2023-07-29T02:45:39;4.30;;;3.77;;
3841;SDS011;1936;47.074;15.336;2023-07-29T02:47:44;4.47;;;3.83;;
3841;SDS011;1936;47.074;15.336;2023-07-29T02:49:48;5.80;;;4.10;;
3841;SDS011;1936;47.074;15.336;2023-07-29T02:51:52;5.10;;;3.67;;
3841;SDS011;1936;47.074;15.336;2023-07-29T02:53:55;4.77;;;3.87;;
3841;SDS011;1936;47.074;15.336;2023-07-29T02:55:58;5.03;;;3.50;;
3841;SDS011;1936;47.074;15.336;2023-07-29T02:58:02;4.63;;;3.83;;
3841;SDS011;1936;47.074;15.336;2023-07-29T03:00:06;6.63;;;4.43;;
3841;SDS011;1936;47.074;15.336;2023-07-29T03:02:10;4.10;;;3.70;;
3841;SDS011;1936;47.074;15.336;2023-07-29T03:04:15;4.70;;;4.23;;
3841;SDS011;1936;47.074;15.336;2023-07-29T03:06:19;6.03;;;3.63;;
3841;SDS011;1936;47.074;15.336;2023-07-29T03:08:22;10.10;;;3.53;;
3841;SDS011;1936;47.074;15.336;2023-07-29T03:10:26;9.37;;;4.63;;
3841;SDS011;1936;47.074;15.336;2023-07-29T03:12:29;6.20;;;4.70;;
3841;SDS011;1936;47.074;15.336;2023-07-29T03:14:32;4.07;;;3.67;;
3841;SDS011;1936;47.074;15.336;2023-07-29T03:16:36;4.50;;;3.80;;
3841;SDS011;1936;47.074;15.336;2023-07-29T03:18:40;4.50;;;4.00;;
3841;SDS011;1936;47.074;15.336;2023-07-29T03:20:45;4.77;;;4.00;;
3841;SDS011;1936;47.074;15.336;2023-07-29T03:22:48;3.90;;;3.50;;
3841;SDS011;1936;47.074;15.336;2023-07-29T03:24:52;3.87;;;3.40;;
3841;SDS011;1936;47.074;15.336;2023-07-29T03:26:55;6.17;;;3.80;;
3841;SDS011;1936;47.074;15.336;2023-07-29T03:28:59;4.30;;;3.67;;
3841;SDS011;1936;47.074;15.336;2023-07-29T03:31:02;5.13;;;4.00;;
3841;SDS011;1936;47.074;15.336;2023-07-29T03:33:06;6.07;;;4.27;;
3841;SDS011;1936;47.074;15.336;2023-07-29T03:35:09;11.87;;;3.67;;
3841;SDS011;1936;47.074;15.336;2023-07-29T03:37:15;5.77;;;3.77;;
3841;SDS011;1936;47.074;15.336;2023-07-29T03:39:18;9.20;;;4.73;;
3841;SDS011;1936;47.074;15.336;2023-07-29T03:41:21;4.67;;;3.90;;
3841;SDS011;1936;47.074;15.336;2023-07-29T03:43:25;5.77;;;3.70;;
3841;SDS011;1936;47.074;15.336;2023-07-29T03:45:28;5.50;;;3.50;;
3841;SDS011;1936;47.074;15.336;2023-07-29T03:47:32;4.43;;;3.77;;
3841;SDS011;1936;47.074;15.336;2023-07-29T03:49:34;4.03;;;3.63;;
3841;SDS011;1936;47.074;15.336;2023-07-29T03:51:38;5.73;;;4.53;;
3841;SDS011;1936;47.074;15.336;2023-07-29T03:53:42;5.40;;;3.80;;
3841;SDS011;1936;47.074;15.336;2023-07-29T03:55:46;4.10;;;3.70;;
3841;SDS011;1936;47.074;15.336;2023-07-29T03:57:51;6.33;;;4.10;;
3841;SDS011;1936;47.074;15.336;2023-07-29T03:59:54;6.67;;;4.43;;
3841;SDS011;1936;47.074;15.336;2023-07-29T04:01:58;5.33;;;3.60;;
3841;SDS011;1936;47.074;15.336;2023-07-29T04:04:01;4.60;;;3.97;;
3841;SDS011;1936;47.074;15.336;2023-07-29T04:06:05;4.60;;;3.73;;
3841;SDS011;1936;47.074;15.336;2023-07-29T04:08:09;3.67;;;3.37;;
3841;SDS011;1936;47.074;15.336;2023-07-29T04:10:14;5.17;;;3.20;;
3841;SDS011;1936;47.074;15.336;2023-07-29T04:12:17;7.43;;;3.60;;
3841;SDS011;1936;47.074;15.336;2023-07-29T04:14:23;5.27;;;3.33;;
3841;SDS011;1936;47.074;15.336;2023-07-29T04:16:26;4.40;;;4.00;;
3841;SDS011;1936;47.074;15.336;2023-07-29T04:18:30;4.40;;;3.50;;
3841;SDS011;1936;47.074;15.336;2023-07-29T04:20:33;4.20;;;3.73;;
3841;SDS011;1936;47.074;15.336;2023-07-29T04:22:37;6.97;;;4.63;;
3841;SDS011;1936;47.074;15.336;2023-07-29T04:24:40;4.60;;;3.60;;
3841;SDS011;1936;47.074;15.336;2023-07-29T04:26:45;7.00;;;3.50;;
3841;SDS011;1936;47.074;15.336;2023-07-29T04:28:49;3.80;;;3.50;;
3841;SDS011;1936;47.074;15.336;2023-07-29T04:30:52;4.93;;;4.40;;
3841;SDS011;1936;47.074;15.336;2023-07-29T04:32:55;5.00;;;3.50;;
3841;SDS011;1936;47.074;15.336;2023-07-29T04:34:58;5.13;;;3.73;;
3841;SDS011;1936;47.074;15.336;2023-07-29T04:37:01;4.33;;;3.10;;
3841;SDS011;1936;47.074;15.336;2023-07-29T04:39:05;9.37;;;3.97;;
3841;SDS011;1936;47.074;15.336;2023-07-29T04:41:09;5.30;;;3.53;;
3841;SDS011;1936;47.074;15.336;2023-07-29T04:43:14;6.40;;;4.23;;
3841;SDS011;1936;47.074;15.336;2023-07-29T04:45:17;5.97;;;3.10;;
3841;SDS011;1936;47.074;15.336;2023-07-29T04:47:20;3.90;;;3.50;;
3841;SDS011;1936;47.074;15.336;2023-07-29T04:49:25;3.83;;;3.27;;
3841;SDS011;1936;47.074;15.336;2023-07-29T04:51:28;6.33;;;3.40;;
3841;SDS011;1936;47.074;15.336;2023-07-29T04:53:33;4.30;;;3.87;;
3841;SDS011;1936;47.074;15.336;2023-07-29T04:55:37;6.30;;;3.77;;
3841;SDS011;1936;47.074;15.336;2023-07-29T04:57:40;3.63;;;3.30;;
3841;SDS011;1936;47.074;15.336;2023-07-29T04:59:45;8.00;;;3.47;;
3841;SDS011;1936;47.074;15.336;2023-07-29T05:01:48;5.90;;;3.83;;
3841;SDS011;1936;47.074;15.336;2023-07-29T05:03:55;4.23;;;3.70;;
3841;SDS011;1936;47.074;15.336;2023-07-29T05:05:59;6.50;;;4.30;;
3841;SDS011;1936;47.074;15.336;2023-07-29T05:08:03;5.03;;;4.00;;
3841;SDS011;1936;47.074;15.336;2023-07-29T05:10:06;4.97;;;3.30;;
3841;SDS011;1936;47.074;15.336;2023-07-29T05:12:10;4.20;;;3.80;;
3841;SDS011;1936;47.074;15.336;2023-07-29T05:14:14;4.10;;;3.33;;
3841;SDS011;1936;47.074;15.336;2023-07-29T05:16:20;3.73;;;2.90;;
3841;SDS011;1936;47.074;15.336;2023-07-29T05:18:23;4.70;;;3.10;;
3841;SDS011;1936;47.074;15.336;2023-07-29T05:20:27;3.30;;;2.97;;
3841;SDS011;1936;47.074;15.336;2023-07-29T05:22:30;4.90;;;3.20;;
3841;SDS011;1936;47.074;15.336;2023-07-29T05:24:33;3.70;;;3.17;;
3841;SDS011;1936;47.074;15.336;2023-07-29T05:26:37;3.50;;;3.20;;
3841;SDS011;1936;47.074;15.336;2023-07-29T05:28:40;3.87;;;3.57;;
3841;SDS011;1936;47.074;15.336;2023-07-29T05:30:43;5.20;;;3.17;;
3841;SDS011;1936;47.074;15.336;2023-07-29T05:32:48;3.50;;;3.20;;
3841;SDS011;1936;47.074;15.336;2023-07-29T05:34:52;4.67;;;3.17;;
3841;SDS011;1936;47.074;15.336;2023-07-29T05:36:55;5.70;;;3.50;;
3841;SDS011;1936;47.074;15.336;2023-07-29T05:38:59;3.60;;;2.97;;
3841;SDS011;1936;47.074;15.336;2023-07-29T05:41:03;3.93;;;3.30;;
3841;SDS011;1936;47.074;15.336;2023-07-29T05:43:07;3.67;;;3.33;;
3841;SDS011;1936;47.074;15.336;2023-07-29T05:45:10;3.63;;;3.10;;
3841;SDS011;1936;47.074;15.336;2023-07-29T05:47:14;4.00;;;3.07;;
3841;SDS011;1936;47.074;15.336;2023-07-29T05:49:18;3.40;;;2.50;;
3841;SDS011;1936;47.074;15.336;2023-07-29T05:51:22;3.30;;;3.00;;
3841;SDS011;1936;47.074;15.336;2023-07-29T05:53:26;6.90;;;3.33;;
3841;SDS011;1936;47.074;15.336;2023-07-29T05:55:29;5.83;;;3.20;;
3841;SDS011;1936;47.074;15.336;2023-07-29T05:57:33;3.10;;;2.80;;
3841;SDS011;1936;47.074;15.336;2023-07-29T05:59:36;4.30;;;3.90;;
3841;SDS011;1936;47.074;15.336;2023-07-29T06:01:40;3.57;;;3.07;;
3841;SDS011;1936;47.074;15.336;2023-07-29T06:03:43;2.87;;;2.57;;
3841;SDS011;1936;47.074;15.336;2023-07-29T06:05:48;6.10;;;3.77;;
3841;SDS011;1936;47.074;15.336;2023-07-29T06:07:55;4.60;;;3.80;;
3841;SDS011;1936;47.074;15.336;2023-07-29T06:09:58;3.57;;;3.23;;
3841;SDS011;1936;47.074;15.336;2023-07-29T06:12:01;10.20;;;3.23;;
3841;SDS011;1936;47.074;15.336;2023-07-29T06:14:05;5.33;;;2.90;;
3841;SDS011;1936;47.074;15.336;2023-07-29T06:16:08;4.33;;;3.53;;
3841;SDS011;1936;47.074;15.336;2023-07-29T06:18:13;6.73;;;3.57;;
3841;SDS011;1936;47.074;15.336;2023-07-29T06:20:17;4.53;;;3.60;;
3841;SDS011;1936;47.074;15.336;2023-07-29T06:22:21;4.73;;;3.47;;
3841;SDS011;1936;47.074;15.336;2023-07-29T06:24:25;3.50;;;2.50;;
3841;SDS011;1936;47.074;15.336;2023-07-29T06:26:28;3.80;;;3.40;;
3841;SDS011;1936;47.074;15.336;2023-07-29T06:28:32;6.03;;;3.10;;
3841;SDS011;1936;47.074;15.336;2023-07-29T06:30:35;4.77;;;3.40;;
3841;SDS011;1936;47.074;15.336;2023-07-29T06:32:39;3.90;;;3.60;;
3841;SDS011;1936;47.074;15.336;2023-07-29T06:34:43;3.83;;;2.80;;
3841;SDS011;1936;47.074;15.336;2023-07-29T06:36:46;6.70;;;3.80;;
3841;SDS011;1936;47.074;15.336;2023-07-29T06:38:51;4.47;;;3.03;;
3841;SDS011;1936;47.074;15.336;2023-07-29T06:40:55;3.20;;;2.90;;
3841;SDS011;1936;47.074;15.336;2023-07-29T06:42:58;4.07;;;3.47;;
3841;SDS011;1936;47.074;15.336;2023-07-29T06:45:03;3.90;;;3.50;;
3841;SDS011;1936;47.074;15.336;2023-07-29T06:47:07;4.40;;;3.47;;
3841;SDS011;1936;47.074;15.336;2023-07-29T06:49:11;4.30;;;3.30;;
3841;SDS011;1936;47.074;15.336;2023-07-29T06:51:14;4.10;;;3.13;;
3841;SDS011;1936;47.074;15.336;2023-07-29T06:53:18;5.67;;;3.63;;
3841;SDS011;1936;47.074;15.336;2023-07-29T06:55:27;3.83;;;3.10;;
3841;SDS011;1936;47.074;15.336;2023-07-29T06:57:30;5.00;;;3.27;;
3841;SDS011;1936;47.074;15.336;2023-07-29T06:59:33;3.73;;;3.07;;
3841;SDS011;1936;47.074;15.336;2023-07-29T07:01:36;4.33;;;3.43;;
3841;SDS011;1936;47.074;15.336;2023-07-29T07:03:39;2.80;;;2.60;;
3841;SDS011;1936;47.074;15.336;2023-07-29T07:05:43;2.93;;;2.63;;
3841;SDS011;1936;47.074;15.336;2023-07-29T07:07:47;3.57;;;2.93;;
3841;SDS011;1936;47.074;15.336;2023-07-29T07:09:50;3.47;;;3.20;;
3841;SDS011;1936;47.074;15.336;2023-07-29T07:11:55;3.37;;;2.63;;
3841;SDS011;1936;47.074;15.336;2023-07-29T07:13:59;4.30;;;2.50;;
3841;SDS011;1936;47.074;15.336;2023-07-29T07:16:05;3.73;;;2.93;;
3841;SDS011;1936;47.074;15.336;2023-07-29T07:18:09;4.60;;;3.27;;
3841;SDS011;1936;47.074;15.336;2023-07-29T07:20:11;3.80;;;2.53;;
3841;SDS011;1936;47.074;15.336;2023-07-29T07:22:15;4.00;;;2.17;;
3841;SDS011;1936;47.074;15.336;2023-07-29T07:24:18;3.07;;;2.77;;
3841;SDS011;1936;47.074;15.336;2023-07-29T07:26:21;3.47;;;3.10;;
3841;SDS011;1936;47.074;15.336;2023-07-29T07:28:27;2.93;;;2.37;;
3841;SDS011;1936;47.074;15.336;2023-07-29T07:30:30;2.37;;;2.07;;
3841;SDS011;1936;47.074;15.336;2023-07-29T07:32:34;2.70;;;2.50;;
3841;SDS011;1936;47.074;15.336;2023-07-29T07:34:38;3.20;;;2.40;;
3841;SDS011;1936;47.074;15.336;2023-07-29T07:36:42;4.63;;;2.30;;
3841;SDS011;1936;47.074;15.336;2023-07-29T07:38:46;2.30;;;2.10;;
3841;SDS011;1936;47.074;15.336;2023-07-29T07:40:53;2.20;;;2.00;;
3841;SDS011;1936;47.074;15.336;2023-07-29T07:42:59;2.73;;;1.70;;
3841;SDS011;1936;47.074;15.336;2023-07-29T07:45:05;2.53;;;1.60;;
3841;SDS011;1936;47.074;15.336;2023-07-29T07:47:10;1.40;;;1.30;;
3841;SDS011;1936;47.074;15.336;2023-07-29T07:49:14;2.10;;;1.90;;
3841;SDS011;1936;47.074;15.336;2023-07-29T07:51:17;1.80;;;1.70;;
3841;SDS011;1936;47.074;15.336;2023-07-29T07:53:21;1.90;;;1.80;;
3841;SDS011;1936;47.074;15.336;2023-07-29T07:55:24;2.83;;;2.40;;
3841;SDS011;1936;47.074;15.336;2023-07-29T07:57:28;2.40;;;2.20;;
3841;SDS011;1936;47.074;15.336;2023-07-29T07:59:31;3.47;;;1.60;;
3841;SDS011;1936;47.074;15.336;2023-07-29T08:01:36;2.47;;;2.27;;
3841;SDS011;1936;47.074;15.336;2023-07-29T08:03:40;1.73;;;1.63;;
3841;SDS011;1936;47.074;15.336;2023-07-29T08:05:44;2.00;;;1.90;;
3841;SDS011;1936;47.074;15.336;2023-07-29T08:07:47;2.37;;;2.17;;
3841;SDS011;1936;47.074;15.336;2023-07-29T08:09:51;2.50;;;2.27;;
3841;SDS011;1936;47.074;15.336;2023-07-29T08:11:54;2.70;;;1.90;;
3841;SDS011;1936;47.074;15.336;2023-07-29T08:13:58;1.87;;;1.77;;
3841;SDS011;1936;47.074;15.336;2023-07-29T08:16:02;2.27;;;2.07;;
3841;SDS011;1936;47.074;15.336;2023-07-29T08:18:06;2.13;;;1.93;;
3841;SDS011;1936;47.074;15.336;2023-07-29T08:20:09;1.90;;;1.80;;
3841;SDS011;1936;47.074;15.336;2023-07-29T08:22:13;2.17;;;2.00;;
3841;SDS011;1936;47.074;15.336;2023-07-29T08:24:18;3.03;;;1.40;;
3841;SDS011;1936;47.074;15.336;2023-07-29T08:26:22;6.73;;;1.67;;
3841;SDS011;1936;47.074;15.336;2023-07-29T08:28:29;2.00;;;1.80;;
3841;SDS011;1936;47.074;15.336;2023-07-29T08:30:34;1.87;;;1.17;;
3841;SDS011;1936;47.074;15.336;2023-07-29T08:32:37;2.57;;;1.70;;
3841;SDS011;1936;47.074;15.336;2023-07-29T08:34:47;1.43;;;1.00;;
3841;SDS011;1936;47.074;15.336;2023-07-29T08:36:51;1.80;;;1.67;;
3841;SDS011;1936;47.074;15.336;2023-07-29T08:38:54;1.50;;;1.40;;
3841;SDS011;1936;47.074;15.336;2023-07-29T08:41:16;1.60;;;1.50;;
3841;SDS011;1936;47.074;15.336;2023-07-29T08:43:24;1.50;;;1.40;;
3841;SDS011;1936;47.074;15.336;2023-07-29T08:45:37;1.20;;;1.10;;
3841;SDS011;1936;47.074;15.336;2023-07-29T08:47:41;1.37;;;1.27;;
3841;SDS011;1936;47.074;15.336;2023-07-29T08:49:45;1.40;;;1.30;;
3841;SDS011;1936;47.074;15.336;2023-07-29T08:51:54;1.40;;;1.30;;
3841;SDS011;1936;47.074;15.336;2023-07-29T08:54:00;1.60;;;1.50;;
3841;SDS011;1936;47.074;15.336;2023-07-29T08:56:05;2.07;;;1.57;;
3841;SDS011;1936;47.074;15.336;2023-07-29T08:58:09;1.90;;;1.80;;
3841;SDS011;1936;47.074;15.336;2023-07-29T09:00:14;2.00;;;1.80;;
3841;SDS011;1936;47.074;15.336;2023-07-29T09:02:22;3.47;;;1.67;;
3841;SDS011;1936;47.074;15.336;2023-07-29T09:04:25;3.03;;;1.73;;
3841;SDS011;1936;47.074;15.336;2023-07-29T09:06:30;1.60;;;1.50;;
3841;SDS011;1936;47.074;15.336;2023-07-29T09:08:35;1.90;;;1.80;;
3841;SDS011;1936;47.074;15.336;2023-07-29T09:10:39;2.20;;;1.80;;
3841;SDS011;1936;47.074;15.336;2023-07-29T09:12:43;2.07;;;1.30;;
3841;SDS011;1936;47.074;15.336;2023-07-29T09:14:47;1.67;;;1.57;;
3841;SDS011;1936;47.074;15.336;2023-07-29T09:16:54;2.20;;;2.10;;
3841;SDS011;1936;47.074;15.336;2023-07-29T09:18:58;1.70;;;1.47;;
3841;SDS011;1936;47.074;15.336;2023-07-29T09:21:05;2.10;;;1.90;;
3841;SDS011;1936;47.074;15.336;2023-07-29T09:23:09;2.07;;;1.87;;
3841;SDS011;1936;47.074;15.336;2023-07-29T09:25:15;1.70;;;1.60;;
3841;SDS011;1936;47.074;15.336;2023-07-29T09:27:25;1.90;;;1.80;;
3841;SDS011;1936;47.074;15.336;2023-07-29T09:29:29;1.73;;;1.63;;
3841;SDS011;1936;47.074;15.336;2023-07-29T09:31:33;2.40;;;1.70;;
3841;SDS011;1936;47.074;15.336;2023-07-29T09:33:37;1.83;;;1.60;;
3841;SDS011;1936;47.074;15.336;2023-07-29T09:35:41;1.80;;;1.70;;
3841;SDS011;1936;47.074;15.336;2023-07-29T09:37:45;1.70;;;1.60;;
3841;SDS011;1936;47.074;15.336;2023-07-29T09:39:49;1.70;;;1.60;;
3841;SDS011;1936;47.074;15.336;2023-07-29T09:41:54;1.80;;;1.70;;
3841;SDS011;1936;47.074;15.336;2023-07-29T09:43:58;2.80;;;1.70;;
3841;SDS011;1936;47.074;15.336;2023-07-29T09:46:03;1.67;;;1.57;;
3841;SDS011;1936;47.074;15.336;2023-07-29T09:48:08;2.63;;;1.57;;
3841;SDS011;1936;47.074;15.336;2023-07-29T09:50:12;1.57;;;1.47;;
3841;SDS011;1936;47.074;15.336;2023-07-29T09:52:16;2.27;;;1.90;;
3841;SDS011;1936;47.074;15.336;2023-07-29T09:54:20;2.63;;;1.60;;
3841;SDS011;1936;47.074;15.336;2023-07-29T09:56:24;1.57;;;1.47;;
3841;SDS011;1936;47.074;15.336;2023-07-29T09:58:30;1.53;;;1.40;;
3841;SDS011;1936;47.074;15.336;2023-07-29T10:00:36;1.77;;;1.33;;
3841;SDS011;1936;47.074;15.336;2023-07-29T10:02:42;2.40;;;1.63;;
3841;SDS011;1936;47.074;15.336;2023-07-29T10:04:46;3.83;;;2.00;;
3841;SDS011;1936;47.074;15.336;2023-07-29T10:06:50;1.80;;;1.67;;
3841;SDS011;1936;47.074;15.336;2023-07-29T10:08:54;1.70;;;1.43;;
3841;SDS011;1936;47.074;15.336;2023-07-29T10:10:59;1.70;;;1.43;;
3841;SDS011;1936;47.074;15.336;2023-07-29T10:13:03;1.87;;;1.77;;
3841;SDS011;1936;47.074;15.336;2023-07-29T10:15:10;1.70;;;1.60;;
3841;SDS011;1936;47.074;15.336;2023-07-29T10:17:14;1.70;;;1.60;;
3841;SDS011;1936;47.074;15.336;2023-07-29T10:19:20;2.30;;;1.53;;
3841;SDS011;1936;47.074;15.336;2023-07-29T10:21:25;2.17;;;1.30;;
3841;SDS011;1936;47.074;15.336;2023-07-29T10:23:36;2.00;;;1.90;;
3841;SDS011;1936;47.074;15.336;2023-07-29T10:25:46;1.30;;;1.10;;
3841;SDS011;1936;47.074;15.336;2023-07-29T10:27:59;2.17;;;1.30;;
3841;SDS011;1936;47.074;15.336;2023-07-29T10:30:07;2.03;;;1.93;;
3841;SDS011;1936;47.074;15.336;2023-07-29T10:32:15;2.20;;;1.70;;
3841;SDS011;1936;47.074;15.336;2023-07-29T10:34:19;2.60;;;2.40;;
3841;SDS011;1936;47.074;15.336;2023-07-29T10:36:24;1.43;;;1.33;;
3841;SDS011;1936;47.074;15.336;2023-07-29T10:38:28;1.90;;;1.80;;
3841;SDS011;1936;47.074;15.336;2023-07-29T10:40:45;1.83;;;1.70;;
3841;SDS011;1936;47.074;15.336;2023-07-29T10:42:59;2.43;;;1.70;;
3841;SDS011;1936;47.074;15.336;2023-07-29T10:45:19;1.97;;;1.87;;
3841;SDS011;1936;47.074;15.336;2023-07-29T10:47:23;1.70;;;1.60;;
3841;SDS011;1936;47.074;15.336;2023-07-29T10:49:28;2.27;;;1.97;;
3841;SDS011;1936;47.074;15.336;2023-07-29T10:51:34;1.43;;;1.33;;
3841;SDS011;1936;47.074;15.336;2023-07-29T10:53:38;2.37;;;2.17;;
3841;SDS011;1936;47.074;15.336;2023-07-29T10:55:43;2.00;;;1.90;;
3841;SDS011;1936;47.074;15.336;2023-07-29T10:57:47;2.07;;;1.97;;
3841;SDS011;1936;47.074;15.336;2023-07-29T10:59:53;1.67;;;1.57;;
3841;SDS011;1936;47.074;15.336;2023-07-29T11:02:00;1.93;;;1.67;;
3841;SDS011;1936;47.074;15.336;2023-07-29T11:04:22;1.60;;;1.50;;
3841;SDS011;1936;47.074;15.336;2023-07-29T11:06:28;3.07;;;1.70;;
3841;SDS011;1936;47.074;15.336;2023-07-29T11:08:32;2.10;;;1.90;;
3841;SDS011;1936;47.074;15.336;2023-07-29T11:10:42;1.80;;;1.70;;
3841;SDS011;1936;47.074;15.336;2023-07-29T11:12:45;1.97;;;1.87;;
3841;SDS011;1936;47.074;15.336;2023-07-29T11:14:51;1.63;;;1.53;;
3841;SDS011;1936;47.074;15.336;2023-07-29T11:16:54;3.23;;;1.63;;
3841;SDS011;1936;47.074;15.336;2023-07-29T11:19:00;2.27;;;2.10;;
3841;SDS011;1936;47.074;15.336;2023-07-29T11:21:04;1.90;;;1.80;;
3841;SDS011;1936;47.074;15.336;2023-07-29T11:23:08;1.97;;;1.77;;
3841;SDS011;1936;47.074;15.336;2023-07-29T11:25:12;2.70;;;2.50;;
3841;SDS011;1936;47.074;15.336;2023-07-29T11:27:16;2.07;;;1.90;;
3841;SDS011;1936;47.074;15.336;2023-07-29T11:29:20;1.80;;;1.70;;
3841;SDS011;1936;47.074;15.336;2023-07-29T11:31:23;2.27;;;2.07;;
3841;SDS011;1936;47.074;15.336;2023-07-29T11:33:42;2.07;;;1.73;;
3841;SDS011;1936;47.074;15.336;2023-07-29T11:35:47;2.10;;;2.00;;
3841;SDS011;1936;47.074;15.336;2023-07-29T11:37:52;2.50;;;2.30;;
3841;SDS011;1936;47.074;15.336;2023-07-29T11:39:58;1.93;;;1.83;;
3841;SDS011;1936;47.074;15.336;2023-07-29T11:42:01;2.80;;;1.60;;
3841;SDS011;1936;47.074;15.336;2023-07-29T11:44:05;2.27;;;2.07;;
3841;SDS011;1936;47.074;15.336;2023-07-29T11:46:12;2.07;;;1.97;;
3841;SDS011;1936;47.074;15.336;2023-07-29T11:48:16;2.40;;;2.20;;
3841;SDS011;1936;47.074;15.336;2023-07-29T11:50:19;2.30;;;2.20;;
3841;SDS011;1936;47.074;15.336;2023-07-29T11:52:24;3.13;;;2.00;;
3841;SDS011;1936;47.074;15.336;2023-07-29T11:54:28;1.60;;;1.50;;
3841;SDS011;1936;47.074;15.336;2023-07-29T11:56:30;2.17;;;1.63;;
3841;SDS011;1936;47.074;15.336;2023-07-29T11:58:36;2.17;;;2.00;;
3841;SDS011;1936;47.074;15.336;2023-07-29T12:00:39;2.07;;;1.97;;
3841;SDS011;1936;47.074;15.336;2023-07-29T12:02:44;2.50;;;2.30;;
3841;SDS011;1936;47.074;15.336;2023-07-29T12:04:48;2.43;;;2.23;;
3841;SDS011;1936;47.074;15.336;2023-07-29T12:06:51;2.17;;;1.80;;
3841;SDS011;1936;47.074;15.336;2023-07-29T12:08:56;1.77;;;1.67;;
3841;SDS011;1936;47.074;15.336;2023-07-29T12:11:00;1.83;;;1.73;;
3841;SDS011;1936;47.074;15.336;2023-07-29T12:13:03;2.50;;;2.30;;
3841;SDS011;1936;47.074;15.336;2023-07-29T12:15:07;3.80;;;2.10;;
3841;SDS011;1936;47.074;15.336;2023-07-29T12:17:12;1.37;;;1.27;;
3841;SDS011;1936;47.074;15.336;2023-07-29T12:19:16;2.50;;;2.30;;
3841;SDS011;1936;47.074;15.336;2023-07-29T12:21:19;1.60;;;1.50;;
3841;SDS011;1936;47.074;15.336;2023-07-29T12:23:24;1.90;;;1.80;;
3841;SDS011;1936;47.074;15.336;2023-07-29T12:25:29;4.33;;;1.90;;
3841;SDS011;1936;47.074;15.336;2023-07-29T12:27:33;1.73;;;1.63;;
3841;SDS011;1936;47.074;15.336;2023-07-29T12:29:39;2.07;;;1.97;;
3841;SDS011;1936;47.074;15.336;2023-07-29T12:31:43;2.00;;;1.80;;
3841;SDS011;1936;47.074;15.336;2023-07-29T12:33:47;1.83;;;1.73;;
3841;SDS011;1936;47.074;15.336;2023-07-29T12:35:51;1.87;;;1.67;;
3841;SDS011;1936;47.074;15.336;2023-07-29T12:37:59;4.40;;;1.83;;
3841;SDS011;1936;47.074;15.336;2023-07-29T12:40:03;2.20;;;2.00;;
3841;SDS011;1936;47.074;15.336;2023-07-29T12:42:09;2.93;;;2.43;;